Time;durP1;ratioP1;P1;durP2;ratioP2;P2;SDS_P1;SDS_P2;PMS_P1;PMS_P2;Temp;Humidity;BMP_temperature;BMP_pressure;BME280_temperature;BME280_humidity;BME280_pressure;Samples;Min_cycle;Max_cycle;Signal;HPM_P1;HPM_P2
2023/08/31 00:02:25;;;;;;;37.45;25.40;;;;;;;31.48;32.26;100629.13;5095088;28;20024;-42
2023/08/31 00:04:55;;;;;;;33.70;23.38;;;;;;;31.70;33.45;100633.28;5092663;28;20543;-43
2023/08/31 00:07:22;;;;;;;35.75;24.48;;;;;;;31.71;33.11;100626.63;5076899;28;20042;-42
2023/08/31 00:09:49;;;;;;;34.58;23.35;;;;;;;31.29;33.72;100627.00;5087391;28;20481;-44
2023/08/31 00:12:15;;;;;;;31.00;22.90;;;;;;;31.57;34.00;100621.47;5094245;28;20559;-43
2023/08/31 00:14:42;;;;;;;35.05;23.25;;;;;;;31.82;34.12;100618.59;5095200;28;20039;-42
2023/08/31 00:17:08;;;;;;;34.08;25.05;;;;;;;31.59;32.58;100615.59;5093535;28;20032;-43
2023/08/31 00:19:35;;;;;;;33.40;23.98;;;;;;;31.45;32.79;100607.72;5095206;28;20098;-43
2023/08/31 00:22:01;;;;;;;35.60;26.92;;;;;;;31.44;31.52;100604.16;5095347;28;20039;-44
2023/08/31 00:24:31;;;;;;;40.58;25.67;;;;;;;31.56;30.75;100608.00;5093815;28;20486;-44
2023/08/31 00:26:58;;;;;;;34.78;26.00;;;;;;;31.37;31.26;100605.88;5093898;28;20063;-43
2023/08/31 00:29:25;;;;;;;32.22;26.02;;;;;;;31.41;31.51;100602.06;5093711;28;20032;-45
2023/08/31 00:31:53;;;;;;;36.35;27.52;;;;;;;30.99;30.88;100604.41;5094996;28;20563;-45
2023/08/31 00:34:19;;;;;;;36.08;26.30;;;;;;;31.14;32.68;100605.59;5094709;28;20020;-43
2023/08/31 00:36:46;;;;;;;35.67;25.25;;;;;;;31.00;33.75;100609.56;5094620;28;20020;-43
2023/08/31 00:39:12;;;;;;;36.70;25.58;;;;;;;31.06;33.24;100609.31;5092888;28;20032;-44
2023/08/31 00:41:39;;;;;;;37.00;25.98;;;;;;;30.93;33.38;100601.06;5078785;28;20025;-43
2023/08/31 00:44:05;;;;;;;34.08;24.58;;;;;;;30.85;34.33;100601.19;5074191;28;20067;-43
2023/08/31 00:46:32;;;;;;;35.72;25.00;;;;;;;30.69;35.21;100599.16;5079075;28;20032;-44
2023/08/31 00:48:59;;;;;;;47.88;26.00;;;;;;;30.55;36.62;100587.63;5114785;28;20046;-42
2023/08/31 00:51:26;;;;;;;39.30;24.48;;;;;;;30.30;36.31;100594.31;5114729;28;20024;-42
2023/08/31 00:53:58;;;;;;;34.67;22.55;;;;;;;30.07;37.55;100586.44;5114712;28;20031;-43
2023/08/31 00:56:26;;;;;;;31.98;23.08;;;;;;;30.24;37.29;100596.50;5098145;28;20024;-45
2023/08/31 00:58:54;;;;;;;36.30;22.42;;;;;;;29.99;38.33;100595.66;5093279;28;20046;-43
2023/08/31 01:01:55;;;;;;;35.30;22.38;;;;;;;29.13;39.03;100591.78;5098933;28;20485;-42
2023/08/31 01:05:10;;;;;;;38.85;22.23;;;;;;;28.35;41.85;100584.81;5064759;28;20041;-42
2023/08/31 01:07:45;;;;;;;41.15;21.05;;;;;;;28.14;42.36;100589.41;5070789;28;20123;-45
2023/08/31 01:10:30;;;;;;;30.13;18.90;;;;;;;27.93;41.93;100583.84;5055409;28;20555;-47
2023/08/31 01:13:11;;;;;;;36.15;20.02;;;;;;;27.56;43.00;100588.91;5070069;28;20028;-45
2023/08/31 01:15:40;;;;;;;33.78;20.77;;;;;;;27.55;42.72;100575.50;5071347;28;20029;-44
2023/08/31 01:18:09;;;;;;;39.25;20.38;;;;;;;27.35;44.32;100579.72;5071164;28;20050;-43
2023/08/31 01:20:47;;;;;;;33.97;18.85;;;;;;;27.30;44.88;100575.19;5069994;28;20394;-43
2023/08/31 01:23:19;;;;;;;37.35;18.85;;;;;;;26.94;45.77;100577.47;5071263;28;20528;-42
2023/08/31 01:25:48;;;;;;;32.42;17.33;;;;;;;26.68;46.86;100572.72;5066892;28;20039;-42
2023/08/31 01:28:14;;;;;;;33.30;17.80;;;;;;;26.55;47.22;100571.75;5058883;28;20433;-43
2023/08/31 01:30:41;;;;;;;39.15;18.35;;;;;;;26.19;47.50;100573.88;5069541;28;20039;-43
2023/08/31 01:33:08;;;;;;;36.13;18.98;;;;;;;25.95;47.35;100572.31;5053925;28;20032;-43
2023/08/31 01:35:49;;;;;;;31.40;17.75;;;;;;;25.67;47.38;100573.59;5070703;28;20033;-43
2023/08/31 01:38:22;;;;;;;31.77;18.30;;;;;;;25.87;46.81;100578.56;5053645;28;20032;-43
2023/08/31 01:41:05;;;;;;;31.77;18.63;;;;;;;25.56;47.80;100566.75;5071183;28;20590;-44
2023/08/31 01:43:33;;;;;;;32.35;17.42;;;;;;;25.42;48.48;100567.63;5081623;28;20036;-43
2023/08/31 01:46:00;;;;;;;35.67;17.45;;;;;;;25.30;49.46;100567.38;5072634;28;20576;-44
2023/08/31 01:48:27;;;;;;;35.55;17.25;;;;;;;25.04;49.75;100561.66;5072742;28;20066;-44
2023/08/31 01:50:54;;;;;;;35.95;16.85;;;;;;;24.86;50.38;100570.84;5088505;28;20042;-43
2023/08/31 01:53:20;;;;;;;34.67;16.73;;;;;;;24.73;50.87;100561.56;5093154;28;20127;-44
2023/08/31 01:55:46;;;;;;;40.25;18.08;;;;;;;24.72;50.95;100568.97;5093031;28;20055;-44
2023/08/31 01:58:12;;;;;;;30.45;16.17;;;;;;;24.60;51.34;100557.75;5092971;28;20028;-43
2023/08/31 02:00:39;;;;;;;33.60;17.17;;;;;;;24.66;51.26;100563.91;5093071;28;20035;-43
2023/08/31 02:03:06;;;;;;;32.83;15.38;;;;;;;24.46;51.52;100557.75;5088677;28;20486;-44
2023/08/31 02:05:32;;;;;;;31.17;17.05;;;;;;;24.51;51.70;100553.28;5073818;28;20058;-43
2023/08/31 02:07:58;;;;;;;30.08;15.05;;;;;;;24.40;51.55;100548.03;5081806;28;20031;-44
2023/08/31 02:10:26;;;;;;;28.05;14.77;;;;;;;24.41;51.75;100555.09;5105994;28;20490;-43
2023/08/31 02:12:52;;;;;;;30.15;15.32;;;;;;;24.29;52.14;100543.84;5092018;28;20738;-44
2023/08/31 02:15:18;;;;;;;34.63;14.88;;;;;;;24.07;53.06;100546.50;5092922;28;20031;-43
2023/08/31 02:17:45;;;;;;;32.13;15.43;;;;;;;24.17;52.96;100551.75;5092307;28;20077;-44
2023/08/31 02:20:13;;;;;;;28.63;14.75;;;;;;;24.23;52.86;100545.06;5092834;28;20056;-43
2023/08/31 02:22:40;;;;;;;34.25;16.05;;;;;;;23.91;53.61;100540.50;5090229;28;20052;-44
2023/08/31 02:25:06;;;;;;;32.65;13.88;;;;;;;24.02;53.15;100536.47;5098362;28;20102;-43
2023/08/31 02:27:33;;;;;;;29.58;14.85;;;;;;;23.66;54.38;100536.31;5088522;28;20027;-44
2023/08/31 02:30:00;;;;;;;25.35;14.27;;;;;;;23.57;54.46;100538.09;5093721;28;20040;-43
2023/08/31 02:32:27;;;;;;;28.92;13.32;;;;;;;23.55;53.88;100537.59;5092303;28;20088;-43
2023/08/31 02:34:53;;;;;;;30.20;14.00;;;;;;;23.68;53.87;100534.09;5075939;28;20040;-43
2023/08/31 02:37:19;;;;;;;26.10;13.38;;;;;;;23.47;54.55;100535.53;5081015;28;20063;-43
2023/08/31 02:39:46;;;;;;;33.25;16.17;;;;;;;23.17;55.56;100534.94;5102235;28;20059;-43
2023/08/31 02:42:13;;;;;;;23.15;13.13;;;;;;;23.21;55.85;100538.69;5111348;28;20030;-43
2023/08/31 02:44:40;;;;;;;28.55;14.63;;;;;;;23.06;56.06;100537.00;5092372;28;20028;-42
2023/08/31 02:47:06;;;;;;;31.20;13.98;;;;;;;23.20;56.05;100542.50;5091907;28;20026;-43
2023/08/31 02:49:32;;;;;;;32.05;13.55;;;;;;;22.90;57.17;100541.88;5092291;28;20486;-43
2023/08/31 02:51:59;;;;;;;30.17;14.48;;;;;;;22.72;58.13;100542.66;5092173;28;20074;-43
2023/08/31 02:54:25;;;;;;;31.23;14.55;;;;;;;22.60;58.75;100542.31;5094161;28;20048;-44
2023/08/31 02:56:53;;;;;;;29.13;13.02;;;;;;;22.58;58.48;100539.84;5103659;28;20048;-43
2023/08/31 02:59:19;;;;;;;26.00;12.15;;;;;;;22.66;58.12;100543.84;5092326;28;20034;-44
2023/08/31 03:01:47;;;;;;;26.10;13.50;;;;;;;22.73;58.01;100544.28;5092297;28;20024;-44
2023/08/31 03:04:13;;;;;;;30.05;12.25;;;;;;;22.43;58.61;100550.13;5091977;28;20040;-44
2023/08/31 03:06:40;;;;;;;28.83;13.45;;;;;;;22.53;58.42;100555.47;5091882;28;20121;-44
2023/08/31 03:09:06;;;;;;;34.90;14.18;;;;;;;22.22;59.67;100550.41;5091004;28;20027;-43
2023/08/31 03:11:32;;;;;;;27.85;13.15;;;;;;;22.13;59.91;100560.31;5089781;28;20036;-44
2023/08/31 03:13:58;;;;;;;29.33;13.23;;;;;;;22.02;60.16;100562.31;5067088;28;20529;-43
2023/08/31 03:16:24;;;;;;;37.83;14.23;;;;;;;21.68;61.74;100565.09;5091769;28;20038;-42
2023/08/31 03:18:51;;;;;;;28.25;12.43;;;;;;;21.66;62.15;100569.22;5092092;28;20028;-43
2023/08/31 03:21:17;;;;;;;30.13;13.13;;;;;;;21.52;62.75;100575.31;5091723;28;20027;-43
2023/08/31 03:23:43;;;;;;;33.92;12.48;;;;;;;21.42;64.02;100575.41;5084982;28;20047;-42
2023/08/31 03:26:10;;;;;;;28.45;11.98;;;;;;;21.43;63.90;100581.66;5090141;28;20067;-43
2023/08/31 03:28:38;;;;;;;26.25;12.90;;;;;;;21.10;65.52;100578.63;5100684;28;20488;-43
2023/08/31 03:31:04;;;;;;;33.63;12.13;;;;;;;21.13;64.18;100572.59;5112265;28;20028;-51
2023/08/31 03:33:30;;;;;;;33.00;12.80;;;;;;;20.86;64.82;100589.34;5095566;28;20485;-44
2023/08/31 03:36:04;;;;;;;26.48;12.15;;;;;;;20.63;66.21;100590.84;5095798;28;20085;-42
2023/08/31 03:38:31;;;;;;;25.85;11.52;;;;;;;20.67;66.36;100594.63;5075413;28;20032;-43
2023/08/31 03:40:58;;;;;;;26.35;10.88;;;;;;;20.62;66.43;100599.28;5083926;28;20036;-43
2023/08/31 03:43:24;;;;;;;34.92;12.00;;;;;;;20.39;66.97;100601.50;5075453;28;20029;-43
2023/08/31 03:45:57;;;;;;;29.98;11.15;;;;;;;20.22;68.15;100604.53;5110774;28;20089;-43
2023/08/31 03:48:24;;;;;;;30.90;10.70;;;;;;;20.26;67.87;100600.16;5116052;28;20024;-42
2023/08/31 03:50:51;;;;;;;33.78;11.07;;;;;;;20.19;68.03;100607.00;5111890;28;20059;-42
2023/08/31 03:53:18;;;;;;;37.75;11.60;;;;;;;20.16;68.47;100602.13;5095165;28;20051;-43
2023/08/31 03:55:45;;;;;;;34.33;11.80;;;;;;;20.22;67.61;100609.97;5095492;28;20036;-43
2023/08/31 03:58:11;;;;;;;33.50;12.35;;;;;;;20.23;67.20;100619.75;5095572;28;20425;-44
2023/08/31 04:00:38;;;;;;;34.38;12.27;;;;;;;20.21;67.75;100630.09;5097360;28;20458;-42
2023/08/31 04:03:05;;;;;;;35.08;12.05;;;;;;;19.96;68.20;100616.53;5116217;28;20035;-43
2023/08/31 04:05:35;;;;;;;33.85;11.55;;;;;;;19.91;69.14;100625.50;5115941;28;20031;-43
2023/08/31 04:08:02;;;;;;;26.05;12.02;;;;;;;20.00;67.94;100618.44;5115576;28;20027;-43
2023/08/31 04:10:31;;;;;;;35.95;12.45;;;;;;;19.96;67.70;100630.13;5103830;28;20374;-43
2023/08/31 04:12:58;;;;;;;33.58;12.93;;;;;;;19.78;68.23;100623.34;5104747;28;20059;-43
2023/08/31 04:15:24;;;;;;;30.17;11.93;;;;;;;19.77;68.82;100629.88;5115568;28;20110;-44
2023/08/31 04:17:50;;;;;;;34.63;11.82;;;;;;;19.72;69.19;100625.25;5115379;28;20024;-45
2023/08/31 04:20:17;;;;;;;31.02;11.18;;;;;;;19.66;69.58;100620.91;5115300;28;20488;-44
2023/08/31 04:22:44;;;;;;;31.50;11.65;;;;;;;19.57;69.66;100622.50;5094956;28;20159;-45
2023/08/31 04:25:10;;;;;;;33.53;12.18;;;;;;;19.49;69.06;100620.34;5093395;28;20162;-45
2023/08/31 04:27:39;;;;;;;28.45;11.93;;;;;;;19.59;68.58;100606.78;5109147;28;20023;-45
2023/08/31 04:30:06;;;;;;;33.92;11.07;;;;;;;19.50;69.31;100616.53;5094980;28;20066;-45
2023/08/31 04:32:33;;;;;;;38.13;13.27;;;;;;;19.41;70.22;100613.53;5094910;28;20028;-44
2023/08/31 04:34:59;;;;;;;34.00;11.95;;;;;;;19.35;70.08;100619.22;5094593;28;20020;-44
2023/08/31 04:37:25;;;;;;;38.45;13.73;;;;;;;19.20;70.83;100622.72;5094519;28;20409;-45
2023/08/31 04:39:51;;;;;;;31.63;11.45;;;;;;;18.96;72.44;100625.13;5094845;28;20079;-45
2023/08/31 04:42:18;;;;;;;29.50;11.27;;;;;;;18.95;73.39;100618.06;5094753;28;20481;-44
2023/08/31 04:44:44;;;;;;;28.55;11.15;;;;;;;18.99;72.98;100621.88;5094072;28;20040;-45
2023/08/31 04:47:11;;;;;;;32.97;10.98;;;;;;;19.01;72.31;100630.56;5093636;28;20077;-44
2023/08/31 04:49:37;;;;;;;30.05;11.23;;;;;;;19.04;72.23;100624.59;5094386;28;20027;-45
2023/08/31 04:52:04;;;;;;;42.30;13.43;;;;;;;18.92;72.06;100624.81;5094437;28;20044;-45
2023/08/31 04:54:30;;;;;;;32.60;11.57;;;;;;;19.02;71.79;100631.38;5093682;28;20058;-44
2023/08/31 04:56:56;;;;;;;44.03;12.82;;;;;;;18.65;73.49;100622.25;5094352;28;20024;-44
2023/08/31 04:59:23;;;;;;;44.85;13.00;;;;;;;18.62;73.60;100632.84;5094378;28;20036;-44
2023/08/31 05:01:49;;;;;;;43.08;12.55;;;;;;;18.59;73.41;100636.88;5093678;28;20051;-44
2023/08/31 05:04:15;;;;;;;30.23;11.27;;;;;;;18.65;72.63;100619.53;5093964;28;20028;-44
2023/08/31 05:06:41;;;;;;;37.85;11.73;;;;;;;18.69;72.09;100628.00;5092684;28;20089;-43
2023/08/31 05:09:09;;;;;;;34.78;11.63;;;;;;;18.64;72.21;100612.50;5094061;28;20101;-44
2023/08/31 05:11:36;;;;;;;33.42;11.50;;;;;;;18.48;72.69;100613.50;5089928;28;20101;-44
2023/08/31 05:14:02;;;;;;;37.67;12.90;;;;;;;18.61;72.74;100610.34;5091532;28;20056;-44
2023/08/31 05:16:28;;;;;;;34.28;12.50;;;;;;;18.68;72.54;100610.13;5095803;28;20031;-43
2023/08/31 05:18:54;;;;;;;31.23;12.88;;;;;;;18.57;73.69;100613.84;5081627;28;20059;-43
2023/08/31 05:21:21;;;;;;;27.73;11.27;;;;;;;18.76;73.59;100606.88;5074013;28;20028;-43
2023/08/31 05:23:47;;;;;;;40.92;13.40;;;;;;;18.50;74.39;100603.22;5073491;28;20107;-43
2023/08/31 05:26:15;;;;;;;35.25;11.90;;;;;;;18.75;73.63;100604.44;5077113;28;20091;-43
2023/08/31 05:28:41;;;;;;;41.17;12.63;;;;;;;18.64;74.32;100604.38;5093487;28;20020;-43
2023/08/31 05:31:07;;;;;;;33.00;12.85;;;;;;;18.80;73.34;100594.41;5093560;28;20121;-46
2023/08/31 05:33:33;;;;;;;35.65;12.93;;;;;;;18.69;73.55;100596.28;5093313;28;20047;-43
2023/08/31 05:36:06;;;;;;;35.25;12.73;;;;;;;18.72;73.57;100594.94;5074572;28;20028;-43
2023/08/31 05:38:32;;;;;;;37.40;13.20;;;;;;;18.57;74.34;100598.38;5073081;28;20089;-43
2023/08/31 05:41:09;;;;;;;37.92;11.82;;;;;;;18.62;74.37;100594.88;5073173;28;20435;-43
2023/08/31 05:43:36;;;;;;;36.45;12.15;;;;;;;18.82;73.16;100599.56;5073140;28;20108;-43
2023/08/31 05:46:03;;;;;;;33.47;12.20;;;;;;;18.71;72.59;100602.28;5073040;28;20033;-44
2023/08/31 05:48:30;;;;;;;30.42;11.35;;;;;;;18.76;72.31;100597.94;5073163;28;20103;-43
2023/08/31 05:50:56;;;;;;;25.55;11.73;;;;;;;18.69;72.42;100601.69;5077697;28;20110;-44
2023/08/31 05:53:22;;;;;;;33.95;13.15;;;;;;;18.55;73.07;100591.59;5073111;28;20094;-45
2023/08/31 05:55:49;;;;;;;31.75;13.50;;;;;;;18.65;72.53;100597.03;5072480;28;20101;-44
2023/08/31 05:58:15;;;;;;;38.03;12.45;;;;;;;18.77;71.40;100602.25;5072715;28;20107;-44
2023/08/31 06:00:41;;;;;;;35.25;12.75;;;;;;;18.82;71.98;100600.41;5072720;28;20017;-44
2023/08/31 06:03:08;;;;;;;25.30;11.75;;;;;;;18.84;71.24;100598.25;5072860;28;20024;-44
2023/08/31 06:05:35;;;;;;;35.60;12.13;;;;;;;18.97;70.75;100608.56;5075384;28;20025;-44
2023/08/31 06:08:01;;;;;;;34.50;13.25;;;;;;;18.99;70.57;100602.91;5072776;28;20074;-44
2023/08/31 06:10:29;;;;;;;26.65;11.55;;;;;;;18.84;70.92;100597.44;5076310;28;20036;-45
2023/08/31 06:12:55;;;;;;;29.60;11.93;;;;;;;18.76;71.60;100600.63;5072649;28;20032;-42
2023/08/31 06:15:21;;;;;;;33.25;12.93;;;;;;;18.71;71.63;100602.28;5072641;28;20039;-42
2023/08/31 06:17:47;;;;;;;42.75;13.68;;;;;;;18.51;72.92;100599.44;5084110;28;20059;-43
2023/08/31 06:20:14;;;;;;;32.72;12.23;;;;;;;18.72;71.61;100594.94;5113112;28;20107;-43
2023/08/31 06:22:40;;;;;;;37.95;13.15;;;;;;;18.68;72.04;100599.28;5113209;28;20137;-44
2023/08/31 06:25:07;;;;;;;28.20;12.25;;;;;;;18.57;72.44;100592.16;5112593;28;20115;-44
2023/08/31 06:27:35;;;;;;;31.55;11.27;;;;;;;18.71;71.46;100596.84;5102167;28;20035;-43
2023/08/31 06:30:01;;;;;;;35.55;14.02;;;;;;;18.62;71.82;100592.97;5072001;28;20383;-45
2023/08/31 06:32:27;;;;;;;34.85;12.55;;;;;;;18.58;72.17;100586.44;5072331;28;20028;-47
2023/08/31 06:34:54;;;;;;;43.25;13.32;;;;;;;18.51;72.33;100588.59;5072265;28;20026;-43
2023/08/31 06:37:20;;;;;;;38.30;12.68;;;;;;;18.44;72.95;100590.75;5072067;28;20020;-46
2023/08/31 06:39:46;;;;;;;44.92;13.93;;;;;;;18.18;74.05;100582.47;5081745;28;20017;-43
2023/08/31 06:42:12;;;;;;;28.98;12.27;;;;;;;18.30;73.90;100592.28;5072232;28;20093;-43
2023/08/31 06:44:39;;;;;;;33.63;12.38;;;;;;;18.36;73.29;100586.63;5086179;28;20039;-45
2023/08/31 06:47:05;;;;;;;37.90;12.23;;;;;;;18.30;73.09;100587.69;5092173;28;20149;-44
2023/08/31 06:49:32;;;;;;;40.80;12.35;;;;;;;18.42;73.43;100587.47;5090793;28;20035;-46
2023/08/31 06:52:01;;;;;;;37.63;13.40;;;;;;;18.32;73.72;100588.25;5092044;28;20044;-45
2023/08/31 06:54:27;;;;;;;33.92;12.60;;;;;;;18.23;74.35;100581.69;5091791;28;20035;-44
2023/08/31 06:56:53;;;;;;;38.33;12.02;;;;;;;18.31;74.14;100583.06;5092049;28;20028;-44
2023/08/31 06:59:19;;;;;;;41.53;14.10;;;;;;;18.25;74.29;100582.22;5092362;28;20386;-46
2023/08/31 07:01:46;;;;;;;48.22;14.32;;;;;;;18.09;75.44;100578.63;5086953;28;20477;-45
2023/08/31 07:04:12;;;;;;;42.42;13.65;;;;;;;17.94;76.28;100578.56;5097422;28;20027;-44
2023/08/31 07:06:38;;;;;;;47.47;14.32;;;;;;;17.90;76.67;100572.84;5091772;28;20031;-44
2023/08/31 07:09:08;;;;;;;32.25;12.85;;;;;;;18.07;75.65;100574.56;5091739;28;20027;-44
2023/08/31 07:11:34;;;;;;;37.50;12.77;;;;;;;18.12;75.58;100574.59;5071569;28;20094;-44
2023/08/31 07:14:01;;;;;;;37.60;12.80;;;;;;;18.29;74.87;100572.50;5071667;28;20039;-44
2023/08/31 07:16:27;;;;;;;39.17;12.65;;;;;;;18.13;75.14;100568.91;5071354;28;20032;-43
2023/08/31 07:18:53;;;;;;;40.28;13.55;;;;;;;17.91;76.09;100574.47;5088072;28;20024;-44
2023/08/31 07:21:19;;;;;;;32.60;11.68;;;;;;;18.15;75.38;100574.03;5091665;28;20024;-43
2023/08/31 07:23:46;;;;;;;42.45;12.48;;;;;;;18.08;75.58;100573.47;5091744;28;20031;-44
2023/08/31 07:26:12;;;;;;;38.70;12.52;;;;;;;18.06;74.82;100571.03;5091466;28;20021;-47
2023/08/31 07:28:38;;;;;;;38.88;13.43;;;;;;;17.83;76.03;100579.56;5091480;28;20024;-44
2023/08/31 07:31:06;;;;;;;39.33;12.80;;;;;;;17.81;76.76;100584.41;5091453;28;20193;-43
2023/08/31 07:33:35;;;;;;;32.22;12.18;;;;;;;17.92;75.90;100578.78;5091624;28;20064;-43
2023/08/31 07:36:03;;;;;;;43.55;14.70;;;;;;;17.67;77.26;100582.13;5077069;28;20052;-43
2023/08/31 07:38:31;;;;;;;30.20;12.35;;;;;;;17.85;76.55;100574.69;5071475;28;20025;-44
2023/08/31 07:40:58;;;;;;;34.22;13.95;;;;;;;17.78;76.83;100588.47;5071519;28;20127;-45
2023/08/31 07:43:25;;;;;;;38.75;14.15;;;;;;;17.65;77.19;100586.97;5072324;28;20107;-44
2023/08/31 07:45:52;;;;;;;45.47;13.07;;;;;;;17.61;77.61;100585.88;5083584;28;20028;-44
2023/08/31 07:48:18;;;;;;;36.40;13.45;;;;;;;17.65;77.21;100581.53;5091635;28;20070;-44
2023/08/31 07:50:46;;;;;;;39.72;12.95;;;;;;;17.69;76.88;100588.06;5091493;28;20490;-44
2023/08/31 07:53:12;;;;;;;33.78;12.95;;;;;;;17.68;77.00;100585.63;5091442;28;20093;-45
2023/08/31 07:55:40;;;;;;;39.70;15.85;;;;;;;17.44;78.00;100587.88;5091304;28;20099;-45
2023/08/31 07:58:06;;;;;;;47.92;15.25;;;;;;;17.63;77.08;100586.41;5090574;28;20359;-45
2023/08/31 08:00:33;;;;;;;46.58;15.18;;;;;;;17.29;78.55;100585.84;5091466;28;20042;-47
2023/08/31 08:02:59;;;;;;;43.38;13.88;;;;;;;17.41;77.58;100577.56;5091481;28;20076;-44
2023/08/31 08:05:25;;;;;;;39.28;14.88;;;;;;;17.46;77.51;100583.03;5072051;28;20117;-44
2023/08/31 08:07:53;;;;;;;37.97;14.27;;;;;;;17.42;77.14;100588.13;5091294;28;20069;-44
2023/08/31 08:10:20;;;;;;;40.50;14.52;;;;;;;17.45;77.08;100583.28;5091462;28;20028;-43
2023/08/31 08:12:46;;;;;;;36.53;13.95;;;;;;;17.63;76.66;100596.41;5091283;28;20101;-45
2023/08/31 08:15:13;;;;;;;40.00;14.38;;;;;;;17.58;76.70;100591.78;5091213;28;20131;-44
2023/08/31 08:17:39;;;;;;;31.10;13.02;;;;;;;17.65;76.33;100588.84;5091174;28;20437;-44
2023/08/31 08:20:07;;;;;;;42.17;14.35;;;;;;;17.57;76.67;100587.44;5089633;28;20063;-45
2023/08/31 08:22:33;;;;;;;38.03;14.23;;;;;;;17.56;76.86;100585.00;5094782;28;20032;-44
2023/08/31 08:25:00;;;;;;;36.67;12.70;;;;;;;17.77;76.25;100583.31;5094809;28;20036;-45
2023/08/31 08:27:27;;;;;;;33.30;13.15;;;;;;;17.78;75.95;100582.22;5092216;28;20035;-44
2023/08/31 08:29:53;;;;;;;36.22;13.77;;;;;;;17.77;75.79;100577.91;5093700;28;20024;-45
2023/08/31 08:32:19;;;;;;;42.17;15.07;;;;;;;17.60;76.42;100577.97;5094451;28;20017;-44
2023/08/31 08:34:46;;;;;;;33.88;13.00;;;;;;;17.53;76.83;100572.78;5094481;28;20028;-43
2023/08/31 08:37:12;;;;;;;39.22;14.48;;;;;;;17.54;77.05;100569.00;5094496;28;20020;-44
2023/08/31 08:39:38;;;;;;;31.65;12.68;;;;;;;17.50;76.79;100576.03;5094739;28;20027;-44
2023/08/31 08:42:07;;;;;;;27.35;11.40;;;;;;;17.65;76.51;100573.41;5094415;28;20036;-43
2023/08/31 08:44:35;;;;;;;39.03;14.10;;;;;;;17.59;77.01;100577.16;5094503;28;20059;-43
2023/08/31 08:47:02;;;;;;;34.15;13.30;;;;;;;17.67;76.63;100567.78;5094198;28;20032;-43
2023/08/31 08:49:30;;;;;;;34.03;13.13;;;;;;;17.58;76.94;100574.72;5095007;28;20412;-43
2023/08/31 08:51:56;;;;;;;30.45;11.77;;;;;;;17.66;76.74;100575.06;5094167;28;20044;-43
2023/08/31 08:54:23;;;;;;;39.35;14.10;;;;;;;17.52;77.13;100582.00;5094386;28;20047;-44
2023/08/31 08:56:49;;;;;;;36.70;13.15;;;;;;;17.67;77.26;100582.13;5094049;28;20020;-44
2023/08/31 08:59:15;;;;;;;40.28;14.43;;;;;;;17.55;78.13;100573.38;5081377;28;20085;-43
2023/08/31 09:01:42;;;;;;;36.38;13.02;;;;;;;17.40;78.83;100570.53;5073835;28;20382;-43
2023/08/31 09:04:09;;;;;;;35.00;13.43;;;;;;;17.59;77.62;100563.63;5073817;28;20020;-46
2023/08/31 09:06:36;;;;;;;36.90;13.75;;;;;;;17.49;77.46;100563.59;5073386;28;20099;-43
2023/08/31 09:09:03;;;;;;;40.50;14.13;;;;;;;17.35;77.82;100557.78;5078097;28;20469;-44
2023/08/31 09:11:29;;;;;;;37.95;13.60;;;;;;;17.30;77.96;100551.50;5073964;28;20029;-44
2023/08/31 09:13:57;;;;;;;31.85;13.02;;;;;;;17.47;77.81;100548.66;5073777;28;20078;-44
2023/08/31 09:16:28;;;;;;;37.45;13.40;;;;;;;17.29;78.44;100547.97;5073267;28;20025;-43
2023/08/31 09:18:59;;;;;;;33.85;12.43;;;;;;;17.23;78.17;100559.03;5073867;28;20104;-46
2023/08/31 09:21:40;;;;;;;38.45;12.55;;;;;;;17.25;78.11;100556.88;5073554;28;20038;-43
2023/08/31 09:24:13;;;;;;;40.00;13.75;;;;;;;17.22;78.75;100560.09;5073656;28;20028;-45
2023/08/31 09:26:43;;;;;;;40.55;13.80;;;;;;;17.07;79.31;100552.66;5068344;28;20040;-44
2023/08/31 09:29:10;;;;;;;44.40;14.10;;;;;;;17.03;79.37;100556.94;5072914;28;20028;-44
2023/08/31 09:31:37;;;;;;;39.72;14.38;;;;;;;16.91;80.72;100554.38;5073169;28;20032;-44
2023/08/31 09:34:03;;;;;;;38.22;12.85;;;;;;;16.96;80.30;100556.31;5073460;28;20130;-43
2023/08/31 09:36:29;;;;;;;41.47;13.45;;;;;;;16.99;79.98;100551.25;5078341;28;20023;-43
2023/08/31 09:38:59;;;;;;;38.28;14.20;;;;;;;16.93;80.27;100546.00;5093273;28;20020;-43
2023/08/31 09:41:26;;;;;;;38.00;13.07;;;;;;;16.97;80.35;100547.13;5093536;28;20028;-43
2023/08/31 09:43:52;;;;;;;35.15;13.10;;;;;;;16.87;80.91;100542.44;5093410;28;20154;-43
2023/08/31 09:46:20;;;;;;;36.85;12.95;;;;;;;16.80;81.68;100542.66;5093262;28;20020;-44
2023/08/31 09:48:48;;;;;;;43.25;13.23;;;;;;;16.83;82.07;100541.34;5086703;28;20196;-43
2023/08/31 09:51:22;;;;;;;43.55;15.50;;;;;;;16.67;82.65;100539.50;5093020;28;20486;-43
2023/08/31 09:53:53;;;;;;;33.40;13.67;;;;;;;16.66;83.07;100530.59;5093322;28;20060;-44
2023/08/31 09:56:22;;;;;;;39.47;14.27;;;;;;;16.59;83.23;100530.75;5093291;28;20097;-45
2023/08/31 09:58:48;;;;;;;36.67;12.48;;;;;;;16.90;81.74;100525.72;5093329;28;20024;-46
2023/08/31 10:01:15;;;;;;;37.78;12.57;;;;;;;16.67;82.46;100531.41;5093389;28;20245;-44
2023/08/31 10:03:41;;;;;;;36.22;12.80;;;;;;;16.72;82.14;100536.88;5087786;28;20024;-46
2023/08/31 10:06:08;;;;;;;41.70;13.02;;;;;;;16.72;81.66;100534.19;5092601;28;20425;-47
2023/08/31 10:08:35;;;;;;;35.42;12.70;;;;;;;16.57;82.16;100532.09;5093088;28;20050;-44
2023/08/31 10:11:04;;;;;;;42.72;13.45;;;;;;;16.66;82.74;100529.75;5092924;28;20020;-42
2023/08/31 10:13:35;;;;;;;37.55;12.80;;;;;;;16.69;82.63;100534.66;5091701;28;20423;-45
2023/08/31 10:16:04;;;;;;;42.17;13.32;;;;;;;16.63;82.54;100537.28;5085044;28;20050;-44
2023/08/31 10:18:32;;;;;;;38.15;13.13;;;;;;;16.66;82.25;100535.16;5092812;28;20028;-44
2023/08/31 10:20:58;;;;;;;38.20;14.02;;;;;;;16.42;83.64;100524.63;5092680;28;20019;-43
2023/08/31 10:23:24;;;;;;;42.58;13.45;;;;;;;16.37;83.68;100529.97;5090732;28;20032;-43
2023/08/31 10:25:54;;;;;;;37.45;13.38;;;;;;;16.26;83.99;100526.31;5077898;28;20060;-43
2023/08/31 10:28:26;;;;;;;39.17;13.30;;;;;;;16.33;83.58;100520.75;5092467;28;20107;-45
2023/08/31 10:31:04;;;;;;;32.28;12.55;;;;;;;16.35;83.69;100518.59;5092725;28;20055;-43
2023/08/31 10:33:57;;;;;;;38.38;13.57;;;;;;;16.33;83.79;100520.75;5092285;28;20038;-43
2023/08/31 10:36:55;;;;;;;42.33;13.40;;;;;;;16.23;84.32;100513.34;5092204;28;20054;-43
2023/08/31 10:39:21;;;;;;;32.55;12.00;;;;;;;16.19;84.71;100519.47;5091745;28;20547;-44
2023/08/31 10:41:57;;;;;;;30.25;12.82;;;;;;;16.22;84.56;100525.19;5092375;28;20103;-44
2023/08/31 10:44:30;;;;;;;36.85;12.13;;;;;;;16.24;84.30;100528.47;5091619;28;20035;-43
2023/08/31 10:47:00;;;;;;;35.65;12.13;;;;;;;16.26;84.74;100533.59;5091839;28;20032;-43
2023/08/31 10:49:26;;;;;;;40.08;13.23;;;;;;;16.20;85.13;100530.03;5092039;28;20035;-43
2023/08/31 10:51:57;;;;;;;38.25;13.25;;;;;;;16.32;85.10;100529.91;5091880;28;20562;-43
2023/08/31 10:54:31;;;;;;;37.92;13.50;;;;;;;16.30;85.35;100532.84;5092164;28;20031;-43
2023/08/31 10:57:04;;;;;;;32.95;12.65;;;;;;;16.20;85.56;100524.63;5092003;28;20094;-44
2023/08/31 10:59:52;;;;;;;37.88;12.60;;;;;;;16.20;85.89;100521.91;5092176;28;20028;-46
2023/08/31 11:02:37;;;;;;;38.20;12.52;;;;;;;16.19;86.22;100509.50;5091929;28;20470;-44
2023/08/31 11:05:10;;;;;;;47.50;13.77;;;;;;;15.95;87.41;100517.03;5091848;28;20035;-45
2023/08/31 11:07:40;;;;;;;36.97;12.82;;;;;;;15.98;87.76;100521.91;5083148;28;20027;-43
2023/08/31 11:10:19;;;;;;;40.58;12.93;;;;;;;15.96;88.99;100509.72;5071508;28;20024;-43
2023/08/31 11:12:50;;;;;;;44.92;13.90;;;;;;;15.91;89.33;100517.75;5071721;28;20550;-44
2023/08/31 11:15:19;;;;;;;46.72;13.48;;;;;;;15.72;90.77;100514.53;5077433;28;20062;-44